sensor_id;sensor_type;location;lat;lon;timestamp;pressure;altitude;pressure_sealevel;temperature;humidity
67980;BME280;54760;47.490;19.030;2024-03-25T00:02:06;99141.31;;;6.87;64.26
67980;BME280;54760;47.490;19.030;2024-03-25T00:04:32;99144.94;;;6.57;65.16
67980;BME280;54760;47.490;19.030;2024-03-25T00:06:57;99150.50;;;6.73;64.81
67980;BME280;54760;47.490;19.030;2024-03-25T00:09:23;99155.00;;;6.83;64.47
67980;BME280;54760;47.490;19.030;2024-03-25T00:11:49;99141.94;;;6.94;64.08
67980;BME280;54760;47.490;19.030;2024-03-25T00:14:20;99147.81;;;6.93;64.40
67980;BME280;54760;47.490;19.030;2024-03-25T00:16:46;99142.72;;;6.95;64.37
67980;BME280;54760;47.490;19.030;2024-03-25T00:19:12;99146.34;;;6.88;64.90
67980;BME280;54760;47.490;19.030;2024-03-25T00:21:37;99140.31;;;6.77;65.32
67980;BME280;54760;47.490;19.030;2024-03-25T00:24:03;99144.47;;;7.05;64.29
67980;BME280;54760;47.490;19.030;2024-03-25T00:26:28;99139.47;;;7.04;64.04
67980;BME280;54760;47.490;19.030;2024-03-25T00:28:54;99137.91;;;7.03;64.45
67980;BME280;54760;47.490;19.030;2024-03-25T00:31:19;99139.87;;;7.02;64.12
67980;BME280;54760;47.490;19.030;2024-03-25T00:33:45;99136.75;;;6.80;64.72
67980;BME280;54760;47.490;19.030;2024-03-25T00:36:10;99143.66;;;6.85;65.07
67980;BME280;54760;47.490;19.030;2024-03-25T00:38:36;99139.19;;;6.98;64.33
67980;BME280;54760;47.490;19.030;2024-03-25T00:41:01;99128.44;;;7.11;63.59
67980;BME280;54760;47.490;19.030;2024-03-25T00:43:27;99131.97;;;6.41;65.68
67980;BME280;54760;47.490;19.030;2024-03-25T00:45:52;99135.94;;;6.83;64.14
67980;BME280;54760;47.490;19.030;2024-03-25T00:48:17;99136.06;;;6.76;64.54
67980;BME280;54760;47.490;19.030;2024-03-25T00:50:43;99128.03;;;6.46;64.78
67980;BME280;54760;47.490;19.030;2024-03-25T00:53:08;99123.28;;;6.50;64.82
67980;BME280;54760;47.490;19.030;2024-03-25T00:55:34;99119.63;;;6.83;63.90
67980;BME280;54760;47.490;19.030;2024-03-25T00:58:01;99123.06;;;7.07;62.83
67980;BME280;54760;47.490;19.030;2024-03-25T01:00:27;99124.06;;;6.50;64.28
67980;BME280;54760;47.490;19.030;2024-03-25T01:02:53;99120.22;;;6.48;64.77
67980;BME280;54760;47.490;19.030;2024-03-25T01:05:18;99129.56;;;6.70;64.10
67980;BME280;54760;47.490;19.030;2024-03-25T01:07:43;99131.19;;;6.87;63.84
67980;BME280;54760;47.490;19.030;2024-03-25T01:10:09;99126.53;;;6.88;63.55
67980;BME280;54760;47.490;19.030;2024-03-25T01:12:34;99128.47;;;6.87;63.64
67980;BME280;54760;47.490;19.030;2024-03-25T01:15:00;99124.91;;;6.90;63.41
67980;BME280;54760;47.490;19.030;2024-03-25T01:17:27;99121.72;;;6.52;64.98
67980;BME280;54760;47.490;19.030;2024-03-25T01:19:52;99127.84;;;6.57;64.83
67980;BME280;54760;47.490;19.030;2024-03-25T01:22:18;99128.38;;;6.71;64.30
67980;BME280;54760;47.490;19.030;2024-03-25T01:24:43;99122.81;;;6.78;63.68
67980;BME280;54760;47.490;19.030;2024-03-25T01:27:09;99123.38;;;6.89;63.28
67980;BME280;54760;47.490;19.030;2024-03-25T01:29:34;99129.22;;;6.68;64.14
67980;BME280;54760;47.490;19.030;2024-03-25T01:32:00;99118.03;;;6.63;64.17
67980;BME280;54760;47.490;19.030;2024-03-25T01:34:27;99117.87;;;6.93;63.52
67980;BME280;54760;47.490;19.030;2024-03-25T01:36:53;99118.59;;;6.54;64.13
67980;BME280;54760;47.490;19.030;2024-03-25T01:39:18;99119.88;;;6.23;65.86
67980;BME280;54760;47.490;19.030;2024-03-25T01:41:43;99113.31;;;6.67;64.36
67980;BME280;54760;47.490;19.030;2024-03-25T01:44:09;99110.63;;;6.86;63.71
67980;BME280;54760;47.490;19.030;2024-03-25T01:46:35;99106.75;;;6.64;64.59
67980;BME280;54760;47.490;19.030;2024-03-25T01:49:01;99106.03;;;6.60;64.49
67980;BME280;54760;47.490;19.030;2024-03-25T01:51:26;99098.81;;;6.50;64.99
67980;BME280;54760;47.490;19.030;2024-03-25T01:53:53;99103.09;;;6.51;65.06
67980;BME280;54760;47.490;19.030;2024-03-25T01:56:21;99105.31;;;6.56;65.13
67980;BME280;54760;47.490;19.030;2024-03-25T01:58:48;99107.56;;;6.61;64.65
67980;BME280;54760;47.490;19.030;2024-03-25T02:01:14;99101.53;;;6.73;64.35
67980;BME280;54760;47.490;19.030;2024-03-25T02:03:41;99100.44;;;6.47;65.40
67980;BME280;54760;47.490;19.030;2024-03-25T02:06:12;99106.16;;;6.53;64.74
67980;BME280;54760;47.490;19.030;2024-03-25T02:08:40;99109.22;;;6.55;64.89
67980;BME280;54760;47.490;19.030;2024-03-25T02:11:06;99115.56;;;6.48;64.99
67980;BME280;54760;47.490;19.030;2024-03-25T02:13:32;99112.44;;;6.93;63.35
67980;BME280;54760;47.490;19.030;2024-03-25T02:15:58;99108.56;;;6.71;63.79
67980;BME280;54760;47.490;19.030;2024-03-25T02:18:23;99110.00;;;6.79;63.85
67980;BME280;54760;47.490;19.030;2024-03-25T02:20:49;99104.22;;;6.96;63.30
67980;BME280;54760;47.490;19.030;2024-03-25T02:23:14;99116.75;;;6.47;64.61
67980;BME280;54760;47.490;19.030;2024-03-25T02:25:42;99113.59;;;6.26;64.98
67980;BME280;54760;47.490;19.030;2024-03-25T02:28:07;99109.34;;;6.48;64.32
67980;BME280;54760;47.490;19.030;2024-03-25T02:30:33;99108.06;;;6.33;64.67
67980;BME280;54760;47.490;19.030;2024-03-25T02:32:58;99109.34;;;6.48;64.22
67980;BME280;54760;47.490;19.030;2024-03-25T02:35:25;99103.56;;;6.69;63.49
67980;BME280;54760;47.490;19.030;2024-03-25T02:37:51;99112.06;;;6.71;64.19
67980;BME280;54760;47.490;19.030;2024-03-25T02:40:17;99117.84;;;6.73;64.44
67980;BME280;54760;47.490;19.030;2024-03-25T02:42:44;99112.19;;;6.64;64.59
67980;BME280;54760;47.490;19.030;2024-03-25T02:45:09;99109.50;;;6.84;64.49
67980;BME280;54760;47.490;19.030;2024-03-25T02:47:35;99108.81;;;7.00;63.44
67980;BME280;54760;47.490;19.030;2024-03-25T02:50:00;99111.94;;;6.55;64.78
67980;BME280;54760;47.490;19.030;2024-03-25T02:52:27;99113.81;;;6.81;64.43
67980;BME280;54760;47.490;19.030;2024-03-25T02:54:52;99105.91;;;6.67;64.60
67980;BME280;54760;47.490;19.030;2024-03-25T02:57:19;99111.72;;;6.69;64.72
67980;BME280;54760;47.490;19.030;2024-03-25T02:59:45;99117.53;;;6.91;63.60
67980;BME280;54760;47.490;19.030;2024-03-25T03:02:10;99120.59;;;6.93;63.50
67980;BME280;54760;47.490;19.030;2024-03-25T03:04:35;99130.28;;;6.51;64.32
67980;BME280;54760;47.490;19.030;2024-03-25T03:07:01;99128.12;;;6.85;63.53
67980;BME280;54760;47.490;19.030;2024-03-25T03:09:26;99123.94;;;7.01;63.03
67980;BME280;54760;47.490;19.030;2024-03-25T03:11:52;99134.34;;;7.06;62.83
67980;BME280;54760;47.490;19.030;2024-03-25T03:14:17;99125.00;;;7.26;62.40
67980;BME280;54760;47.490;19.030;2024-03-25T03:16:42;99131.56;;;7.09;62.39
67980;BME280;54760;47.490;19.030;2024-03-25T03:19:08;99127.81;;;7.03;62.75
67980;BME280;54760;47.490;19.030;2024-03-25T03:21:33;99130.09;;;7.05;62.48
67980;BME280;54760;47.490;19.030;2024-03-25T03:23:59;99129.78;;;6.79;63.81
67980;BME280;54760;47.490;19.030;2024-03-25T03:26:24;99132.41;;;7.06;62.72
67980;BME280;54760;47.490;19.030;2024-03-25T03:28:53;99134.31;;;6.86;63.51
67980;BME280;54760;47.490;19.030;2024-03-25T03:31:19;99132.06;;;7.24;62.74
67980;BME280;54760;47.490;19.030;2024-03-25T03:33:47;99130.09;;;7.44;61.50
67980;BME280;54760;47.490;19.030;2024-03-25T03:36:13;99130.31;;;7.33;61.99
67980;BME280;54760;47.490;19.030;2024-03-25T03:38:39;99131.72;;;7.42;61.67
67980;BME280;54760;47.490;19.030;2024-03-25T03:41:04;99126.88;;;7.29;62.85
67980;BME280;54760;47.490;19.030;2024-03-25T03:43:29;99138.63;;;7.07;64.09
67980;BME280;54760;47.490;19.030;2024-03-25T03:45:55;99140.59;;;7.26;63.14
67980;BME280;54760;47.490;19.030;2024-03-25T03:48:20;99137.94;;;7.42;62.21
67980;BME280;54760;47.490;19.030;2024-03-25T03:50:46;99148.37;;;7.63;61.63
67980;BME280;54760;47.490;19.030;2024-03-25T03:53:11;99145.66;;;7.44;61.59
67980;BME280;54760;47.490;19.030;2024-03-25T03:55:37;99148.88;;;7.19;61.59
67980;BME280;54760;47.490;19.030;2024-03-25T03:58:03;99161.66;;;7.22;61.68
67980;BME280;54760;47.490;19.030;2024-03-25T04:00:29;99157.25;;;7.08;62.12
67980;BME280;54760;47.490;19.030;2024-03-25T04:02:54;99144.19;;;7.00;62.35
67980;BME280;54760;47.490;19.030;2024-03-25T04:05:20;99148.53;;;7.17;62.10
67980;BME280;54760;47.490;19.030;2024-03-25T04:07:45;99140.56;;;7.06;62.23
67980;BME280;54760;47.490;19.030;2024-03-25T04:10:11;99149.06;;;6.65;63.96
67980;BME280;54760;47.490;19.030;2024-03-25T04:12:36;99153.47;;;6.59;64.73
67980;BME280;54760;47.490;19.030;2024-03-25T04:15:05;99149.22;;;7.21;62.68
67980;BME280;54760;47.490;19.030;2024-03-25T04:17:31;99160.03;;;7.24;62.27
67980;BME280;54760;47.490;19.030;2024-03-25T04:19:58;99161.81;;;6.91;63.04
67980;BME280;54760;47.490;19.030;2024-03-25T04:22:25;99159.53;;;7.10;62.68
67980;BME280;54760;47.490;19.030;2024-03-25T04:24:51;99162.75;;;7.05;62.61
67980;BME280;54760;47.490;19.030;2024-03-25T04:27:16;99172.47;;;6.82;63.79
67980;BME280;54760;47.490;19.030;2024-03-25T04:29:42;99168.69;;;6.53;64.79
67980;BME280;54760;47.490;19.030;2024-03-25T04:32:07;99174.47;;;6.55;64.35
67980;BME280;54760;47.490;19.030;2024-03-25T04:34:33;99175.72;;;6.50;65.15
67980;BME280;54760;47.490;19.030;2024-03-25T04:36:59;99172.13;;;7.04;63.37
67980;BME280;54760;47.490;19.030;2024-03-25T04:39:25;99172.94;;;7.01;63.17
67980;BME280;54760;47.490;19.030;2024-03-25T04:41:50;99175.50;;;6.65;64.12
67980;BME280;54760;47.490;19.030;2024-03-25T04:44:15;99172.72;;;6.91;63.59
67980;BME280;54760;47.490;19.030;2024-03-25T04:46:43;99178.87;;;7.15;62.49
67980;BME280;54760;47.490;19.030;2024-03-25T04:49:10;99180.88;;;6.68;63.70
67980;BME280;54760;47.490;19.030;2024-03-25T04:51:35;99178.63;;;6.86;63.46
67980;BME280;54760;47.490;19.030;2024-03-25T04:54:00;99182.66;;;7.21;62.24
67980;BME280;54760;47.490;19.030;2024-03-25T04:56:26;99186.37;;;7.31;62.13
67980;BME280;54760;47.490;19.030;2024-03-25T04:58:51;99192.91;;;7.14;62.61
67980;BME280;54760;47.490;19.030;2024-03-25T05:01:17;99196.31;;;6.98;63.22
67980;BME280;54760;47.490;19.030;2024-03-25T05:03:42;99186.53;;;7.01;63.13
67980;BME280;54760;47.490;19.030;2024-03-25T05:06:07;99196.09;;;6.89;63.57
67980;BME280;54760;47.490;19.030;2024-03-25T05:08:36;99202.75;;;6.84;63.66
67980;BME280;54760;47.490;19.030;2024-03-25T05:11:01;99199.22;;;6.87;63.76
67980;BME280;54760;47.490;19.030;2024-03-25T05:13:27;99200.63;;;6.72;64.41
67980;BME280;54760;47.490;19.030;2024-03-25T05:15:52;99206.53;;;6.44;65.29
67980;BME280;54760;47.490;19.030;2024-03-25T05:18:18;99197.38;;;6.31;66.17
67980;BME280;54760;47.490;19.030;2024-03-25T05:20:44;99206.50;;;6.17;67.08
67980;BME280;54760;47.490;19.030;2024-03-25T05:23:09;99202.09;;;6.27;66.94
67980;BME280;54760;47.490;19.030;2024-03-25T05:25:35;99210.66;;;5.98;68.35
67980;BME280;54760;47.490;19.030;2024-03-25T05:28:01;99216.87;;;6.26;67.76
67980;BME280;54760;47.490;19.030;2024-03-25T05:30:26;99223.75;;;6.34;67.63
67980;BME280;54760;47.490;19.030;2024-03-25T05:32:52;99222.47;;;6.15;68.72
67980;BME280;54760;47.490;19.030;2024-03-25T05:35:18;99233.09;;;6.02;69.45
67980;BME280;54760;47.490;19.030;2024-03-25T05:37:43;99238.31;;;6.47;68.36
67980;BME280;54760;47.490;19.030;2024-03-25T05:40:09;99240.78;;;6.38;68.99
67980;BME280;54760;47.490;19.030;2024-03-25T05:42:37;99231.03;;;6.40;69.25
67980;BME280;54760;47.490;19.030;2024-03-25T05:45:03;99239.16;;;6.44;69.90
67980;BME280;54760;47.490;19.030;2024-03-25T05:47:28;99242.41;;;6.32;70.53
67980;BME280;54760;47.490;19.030;2024-03-25T05:49:54;99247.50;;;6.57;70.89
67980;BME280;54760;47.490;19.030;2024-03-25T05:52:19;99255.59;;;6.60;70.79
67980;BME280;54760;47.490;19.030;2024-03-25T05:54:45;99253.34;;;6.55;71.26
67980;BME280;54760;47.490;19.030;2024-03-25T05:57:10;99251.53;;;6.95;69.80
67980;BME280;54760;47.490;19.030;2024-03-25T05:59:35;99256.66;;;6.66;70.96
67980;BME280;54760;47.490;19.030;2024-03-25T06:02:01;99245.28;;;6.48;72.33
67980;BME280;54760;47.490;19.030;2024-03-25T06:04:26;99242.12;;;6.53;72.34
67980;BME280;54760;47.490;19.030;2024-03-25T06:06:52;99240.97;;;6.50;72.69
67980;BME280;54760;47.490;19.030;2024-03-25T06:09:17;99245.72;;;6.20;73.59
67980;BME280;54760;47.490;19.030;2024-03-25T06:11:42;99246.81;;;5.95;75.10
67980;BME280;54760;47.490;19.030;2024-03-25T06:14:08;99244.59;;;6.44;73.72
67980;BME280;54760;47.490;19.030;2024-03-25T06:16:33;99249.41;;;6.02;75.31
67980;BME280;54760;47.490;19.030;2024-03-25T06:18:59;99246.28;;;6.34;74.11
67980;BME280;54760;47.490;19.030;2024-03-25T06:21:24;99241.75;;;6.51;73.46
67980;BME280;54760;47.490;19.030;2024-03-25T06:23:49;99237.53;;;6.73;72.31
67980;BME280;54760;47.490;19.030;2024-03-25T06:26:15;99240.50;;;6.82;72.05
67980;BME280;54760;47.490;19.030;2024-03-25T06:28:40;99240.50;;;6.82;71.98
67980;BME280;54760;47.490;19.030;2024-03-25T06:31:05;99244.97;;;6.69;72.75
67980;BME280;54760;47.490;19.030;2024-03-25T06:33:50;99240.34;;;7.36;70.37
67980;BME280;54760;47.490;19.030;2024-03-25T06:36:34;99247.88;;;8.07;68.33
67980;BME280;54760;47.490;19.030;2024-03-25T06:39:00;99256.81;;;8.63;64.83
67980;BME280;54760;47.490;19.030;2024-03-25T06:41:26;99237.28;;;10.63;58.87
67980;BME280;54760;47.490;19.030;2024-03-25T06:43:51;99232.31;;;13.07;51.14
67980;BME280;54760;47.490;19.030;2024-03-25T06:46:17;99234.44;;;14.03;47.28
67980;BME280;54760;47.490;19.030;2024-03-25T06:48:42;99242.09;;;10.84;54.30
67980;BME280;54760;47.490;19.030;2024-03-25T06:51:07;99244.31;;;11.11;53.90
67980;BME280;54760;47.490;19.030;2024-03-25T06:53:33;99259.06;;;10.67;55.21
67980;BME280;54760;47.490;19.030;2024-03-25T06:55:59;99257.53;;;9.29;59.74
67980;BME280;54760;47.490;19.030;2024-03-25T06:58:26;99266.53;;;8.64;62.34
67980;BME280;54760;47.490;19.030;2024-03-25T07:00:52;99264.91;;;8.83;62.55
67980;BME280;54760;47.490;19.030;2024-03-25T07:03:19;99267.72;;;9.12;61.70
67980;BME280;54760;47.490;19.030;2024-03-25T07:05:49;99258.31;;;10.54;57.17
67980;BME280;54760;47.490;19.030;2024-03-25T07:08:17;99280.66;;;8.76;61.52
67980;BME280;54760;47.490;19.030;2024-03-25T07:10:45;99283.81;;;8.02;65.01
67980;BME280;54760;47.490;19.030;2024-03-25T07:13:11;99271.03;;;8.55;63.23
67980;BME280;54760;47.490;19.030;2024-03-25T07:15:37;99278.03;;;8.72;63.15
67980;BME280;54760;47.490;19.030;2024-03-25T07:18:02;99274.72;;;8.97;61.96
67980;BME280;54760;47.490;19.030;2024-03-25T07:20:28;99273.09;;;8.83;61.36
67980;BME280;54760;47.490;19.030;2024-03-25T07:22:54;99264.31;;;9.08;60.94
67980;BME280;54760;47.490;19.030;2024-03-25T07:25:24;99281.78;;;8.94;61.31
67980;BME280;54760;47.490;19.030;2024-03-25T07:27:49;99268.31;;;9.48;58.88
67980;BME280;54760;47.490;19.030;2024-03-25T07:30:15;99272.56;;;9.21;59.25
67980;BME280;54760;47.490;19.030;2024-03-25T07:32:41;99274.72;;;8.97;59.98
67980;BME280;54760;47.490;19.030;2024-03-25T07:35:06;99283.28;;;8.47;60.72
67980;BME280;54760;47.490;19.030;2024-03-25T07:37:34;99287.41;;;8.87;60.33
67980;BME280;54760;47.490;19.030;2024-03-25T07:39:59;99285.37;;;8.91;60.22
67980;BME280;54760;47.490;19.030;2024-03-25T07:42:25;99287.13;;;8.65;61.33
67980;BME280;54760;47.490;19.030;2024-03-25T07:44:51;99291.00;;;8.68;61.57
67980;BME280;54760;47.490;19.030;2024-03-25T07:47:16;99283.84;;;8.74;61.01
67980;BME280;54760;47.490;19.030;2024-03-25T07:49:41;99291.75;;;8.68;61.10
67980;BME280;54760;47.490;19.030;2024-03-25T07:52:07;99288.00;;;9.11;60.16
67980;BME280;54760;47.490;19.030;2024-03-25T07:54:32;99290.06;;;8.91;60.53
67980;BME280;54760;47.490;19.030;2024-03-25T07:57:01;99288.62;;;8.50;61.75
67980;BME280;54760;47.490;19.030;2024-03-25T07:59:26;99296.56;;;8.97;60.84
67980;BME280;54760;47.490;19.030;2024-03-25T08:01:51;99290.19;;;9.48;58.99
67980;BME280;54760;47.490;19.030;2024-03-25T08:04:17;99297.22;;;9.33;58.68
67980;BME280;54760;47.490;19.030;2024-03-25T08:06:43;99302.19;;;9.06;59.27
67980;BME280;54760;47.490;19.030;2024-03-25T08:09:08;99302.34;;;9.15;58.98
67980;BME280;54760;47.490;19.030;2024-03-25T08:11:39;99302.78;;;8.97;59.36
67980;BME280;54760;47.490;19.030;2024-03-25T08:14:04;99298.09;;;8.98;59.40
67980;BME280;54760;47.490;19.030;2024-03-25T08:16:30;99301.41;;;9.22;58.33
67980;BME280;54760;47.490;19.030;2024-03-25T08:18:55;99299.84;;;9.37;58.24
67980;BME280;54760;47.490;19.030;2024-03-25T08:21:21;99296.19;;;9.72;56.96
67980;BME280;54760;47.490;19.030;2024-03-25T08:23:48;99300.66;;;9.66;56.84
67980;BME280;54760;47.490;19.030;2024-03-25T08:26:13;99281.00;;;9.42;57.73
67980;BME280;54760;47.490;19.030;2024-03-25T08:28:38;99293.28;;;9.34;58.18
67980;BME280;54760;47.490;19.030;2024-03-25T08:31:04;99293.22;;;10.08;56.49
67980;BME280;54760;47.490;19.030;2024-03-25T08:33:29;99283.03;;;11.48;52.92
67980;BME280;54760;47.490;19.030;2024-03-25T08:35:55;99283.47;;;10.99;53.00
67980;BME280;54760;47.490;19.030;2024-03-25T08:38:20;99290.72;;;11.75;51.19
67980;BME280;54760;47.490;19.030;2024-03-25T08:40:46;99292.25;;;11.97;50.94
67980;BME280;54760;47.490;19.030;2024-03-25T08:43:12;99284.66;;;12.54;49.16
67980;BME280;54760;47.490;19.030;2024-03-25T08:45:37;99292.22;;;11.07;52.70
67980;BME280;54760;47.490;19.030;2024-03-25T08:48:03;99284.22;;;10.36;53.57
67980;BME280;54760;47.490;19.030;2024-03-25T08:50:28;99284.66;;;10.85;52.68
67980;BME280;54760;47.490;19.030;2024-03-25T08:52:54;99283.38;;;10.65;53.09
67980;BME280;54760;47.490;19.030;2024-03-25T08:55:19;99280.94;;;10.41;53.82
67980;BME280;54760;47.490;19.030;2024-03-25T08:57:45;99278.09;;;10.32;53.17
67980;BME280;54760;47.490;19.030;2024-03-25T09:00:11;99282.19;;;10.12;54.41
67980;BME280;54760;47.490;19.030;2024-03-25T09:02:37;99298.59;;;10.53;52.37
67980;BME280;54760;47.490;19.030;2024-03-25T09:05:03;99281.25;;;11.07;50.54
67980;BME280;54760;47.490;19.030;2024-03-25T09:07:32;99278.19;;;13.37;44.84
67980;BME280;54760;47.490;19.030;2024-03-25T09:09:58;99270.47;;;14.23;43.01
67980;BME280;54760;47.490;19.030;2024-03-25T09:12:42;99281.56;;;15.84;39.23
67980;BME280;54760;47.490;19.030;2024-03-25T09:15:07;99273.12;;;14.08;41.97
67980;BME280;54760;47.490;19.030;2024-03-25T09:17:35;99266.53;;;15.85;38.19
67980;BME280;54760;47.490;19.030;2024-03-25T09:20:01;99252.41;;;15.53;38.32
67980;BME280;54760;47.490;19.030;2024-03-25T09:22:26;99248.03;;;17.80;34.25
67980;BME280;54760;47.490;19.030;2024-03-25T09:24:52;99250.97;;;17.10;35.30
67980;BME280;54760;47.490;19.030;2024-03-25T09:27:18;99259.59;;;16.33;36.70
67980;BME280;54760;47.490;19.030;2024-03-25T09:29:43;99257.44;;;15.55;36.68
67980;BME280;54760;47.490;19.030;2024-03-25T09:32:09;99247.66;;;15.69;38.08
67980;BME280;54760;47.490;19.030;2024-03-25T09:34:34;99253.78;;;16.61;35.89
67980;BME280;54760;47.490;19.030;2024-03-25T09:37:00;99233.28;;;16.53;34.69
67980;BME280;54760;47.490;19.030;2024-03-25T09:39:25;99256.84;;;14.80;39.29
67980;BME280;54760;47.490;19.030;2024-03-25T09:41:55;99262.31;;;13.77;41.40
67980;BME280;54760;47.490;19.030;2024-03-25T09:44:22;99270.56;;;13.68;42.39
67980;BME280;54760;47.490;19.030;2024-03-25T09:46:50;99296.81;;;11.91;48.56
67980;BME280;54760;47.490;19.030;2024-03-25T09:49:16;99292.75;;;11.83;50.94
67980;BME280;54760;47.490;19.030;2024-03-25T09:51:42;99290.75;;;11.27;52.76
67980;BME280;54760;47.490;19.030;2024-03-25T09:54:07;99292.37;;;11.38;54.54
67980;BME280;54760;47.490;19.030;2024-03-25T09:56:33;99292.00;;;10.25;56.40
67980;BME280;54760;47.490;19.030;2024-03-25T09:58:59;99293.53;;;10.52;56.27
67980;BME280;54760;47.490;19.030;2024-03-25T10:01:25;99280.53;;;10.81;55.23
67980;BME280;54760;47.490;19.030;2024-03-25T10:03:51;99289.63;;;10.53;56.84
67980;BME280;54760;47.490;19.030;2024-03-25T10:06:16;99280.34;;;12.44;52.14
67980;BME280;54760;47.490;19.030;2024-03-25T10:08:42;99256.78;;;15.60;42.57
67980;BME280;54760;47.490;19.030;2024-03-25T10:11:07;99261.31;;;16.45;41.82
67980;BME280;54760;47.490;19.030;2024-03-25T10:13:32;99237.53;;;18.78;36.33
67980;BME280;54760;47.490;19.030;2024-03-25T10:15:58;99239.00;;;20.09;32.99
67980;BME280;54760;47.490;19.030;2024-03-25T10:18:24;99236.72;;;19.85;32.43
67980;BME280;54760;47.490;19.030;2024-03-25T10:20:50;99248.41;;;19.41;35.05
67980;BME280;54760;47.490;19.030;2024-03-25T10:23:15;99246.81;;;17.41;34.13
67980;BME280;54760;47.490;19.030;2024-03-25T10:25:48;99243.56;;;19.19;32.25
67980;BME280;54760;47.490;19.030;2024-03-25T10:28:13;99234.25;;;20.31;31.84
67980;BME280;54760;47.490;19.030;2024-03-25T10:30:39;99236.75;;;20.13;32.26
67980;BME280;54760;47.490;19.030;2024-03-25T10:33:06;99238.50;;;20.05;31.71
67980;BME280;54760;47.490;19.030;2024-03-25T10:35:34;99234.38;;;22.70;27.98
67980;BME280;54760;47.490;19.030;2024-03-25T10:38:04;99233.81;;;22.53;26.25
67980;BME280;54760;47.490;19.030;2024-03-25T10:40:37;99240.03;;;20.17;28.71
67980;BME280;54760;47.490;19.030;2024-03-25T10:43:05;99246.94;;;17.52;33.55
67980;BME280;54760;47.490;19.030;2024-03-25T10:45:38;99251.19;;;15.45;37.77
67980;BME280;54760;47.490;19.030;2024-03-25T10:48:17;99250.62;;;15.41;37.72
67980;BME280;54760;47.490;19.030;2024-03-25T10:50:44;99240.66;;;14.72;38.30
67980;BME280;54760;47.490;19.030;2024-03-25T10:53:12;99256.63;;;14.59;39.39
67980;BME280;54760;47.490;19.030;2024-03-25T10:55:39;99252.00;;;14.14;40.38
67980;BME280;54760;47.490;19.030;2024-03-25T10:58:07;99246.44;;;13.45;41.91
67980;BME280;54760;47.490;19.030;2024-03-25T11:00:34;99250.62;;;13.10;42.78
67980;BME280;54760;47.490;19.030;2024-03-25T11:03:00;99234.97;;;13.56;41.99
67980;BME280;54760;47.490;19.030;2024-03-25T11:05:27;99244.44;;;13.27;41.28
67980;BME280;54760;47.490;19.030;2024-03-25T11:07:52;99247.03;;;13.31;40.31
67980;BME280;54760;47.490;19.030;2024-03-25T11:10:18;99226.25;;;16.86;34.16
67980;BME280;54760;47.490;19.030;2024-03-25T11:12:43;99233.22;;;16.32;34.80
67980;BME280;54760;47.490;19.030;2024-03-25T11:15:10;99234.84;;;15.42;35.66
67980;BME280;54760;47.490;19.030;2024-03-25T11:17:36;99236.88;;;14.10;38.38
67980;BME280;54760;47.490;19.030;2024-03-25T11:20:09;99242.34;;;15.80;35.42
67980;BME280;54760;47.490;19.030;2024-03-25T11:22:36;99234.19;;;13.64;40.25
67980;BME280;54760;47.490;19.030;2024-03-25T11:25:07;99254.66;;;12.69;44.12
67980;BME280;54760;47.490;19.030;2024-03-25T11:27:36;99251.34;;;12.74;42.82
67980;BME280;54760;47.490;19.030;2024-03-25T11:30:03;99246.03;;;12.18;43.42
67980;BME280;54760;47.490;19.030;2024-03-25T11:32:43;99252.94;;;12.22;44.67
67980;BME280;54760;47.490;19.030;2024-03-25T11:35:09;99248.53;;;12.55;42.75
67980;BME280;54760;47.490;19.030;2024-03-25T11:37:39;99254.13;;;12.52;41.95
67980;BME280;54760;47.490;19.030;2024-03-25T11:40:06;99264.00;;;11.53;46.49
67980;BME280;54760;47.490;19.030;2024-03-25T11:42:32;99300.75;;;10.20;55.52
67980;BME280;54760;47.490;19.030;2024-03-25T11:45:00;99317.47;;;9.65;58.72
67980;BME280;54760;47.490;19.030;2024-03-25T11:47:26;99283.75;;;9.84;58.51
67980;BME280;54760;47.490;19.030;2024-03-25T11:49:51;99285.25;;;10.01;57.06
67980;BME280;54760;47.490;19.030;2024-03-25T11:52:17;99281.19;;;10.34;53.23
67980;BME280;54760;47.490;19.030;2024-03-25T11:54:42;99266.81;;;10.18;53.54
67980;BME280;54760;47.490;19.030;2024-03-25T11:57:08;99245.03;;;12.24;49.87
67980;BME280;54760;47.490;19.030;2024-03-25T11:59:34;99205.19;;;17.75;37.58
67980;BME280;54760;47.490;19.030;2024-03-25T12:01:59;99184.09;;;19.42;34.57
67980;BME280;54760;47.490;19.030;2024-03-25T12:04:27;99176.34;;;21.79;30.69
67980;BME280;54760;47.490;19.030;2024-03-25T12:06:55;99168.59;;;23.42;26.46
67980;BME280;54760;47.490;19.030;2024-03-25T12:09:22;99177.31;;;23.57;26.10
67980;BME280;54760;47.490;19.030;2024-03-25T12:12:07;99177.25;;;21.92;29.47
67980;BME280;54760;47.490;19.030;2024-03-25T12:14:33;99251.59;;;16.65;36.58
67980;BME280;54760;47.490;19.030;2024-03-25T12:16:59;99250.38;;;15.78;39.12
67980;BME280;54760;47.490;19.030;2024-03-25T12:19:24;99272.53;;;14.64;44.64
